sensor_id;sensor_type;location;lat;lon;timestamp;P1;durP1;ratioP1;P2;durP2;ratioP2
59127;SDS011;44912;52.754;5.994;2023-03-14T00:01:56;20.52;;;3.80;;
59127;SDS011;44912;52.754;5.994;2023-03-14T00:04:22;22.17;;;3.97;;
59127;SDS011;44912;52.754;5.994;2023-03-14T00:06:47;24.75;;;4.18;;
59127;SDS011;44912;52.754;5.994;2023-03-14T00:09:14;21.23;;;3.70;;
59127;SDS011;44912;52.754;5.994;2023-03-14T00:11:40;22.38;;;4.43;;
59127;SDS011;44912;52.754;5.994;2023-03-14T00:14:06;20.25;;;3.97;;
59127;SDS011;44912;52.754;5.994;2023-03-14T00:16:31;21.08;;;4.22;;
59127;SDS011;44912;52.754;5.994;2023-03-14T00:19:00;20.15;;;4.07;;
59127;SDS011;44912;52.754;5.994;2023-03-14T00:21:26;23.65;;;4.22;;
59127;SDS011;44912;52.754;5.994;2023-03-14T00:23:52;22.58;;;4.40;;
59127;SDS011;44912;52.754;5.994;2023-03-14T00:26:18;19.00;;;3.90;;
59127;SDS011;44912;52.754;5.994;2023-03-14T00:28:45;19.08;;;3.45;;
59127;SDS011;44912;52.754;5.994;2023-03-14T00:31:12;21.55;;;4.05;;
59127;SDS011;44912;52.754;5.994;2023-03-14T00:33:39;21.52;;;4.60;;
59127;SDS011;44912;52.754;5.994;2023-03-14T00:36:06;21.30;;;3.88;;
59127;SDS011;44912;52.754;5.994;2023-03-14T00:38:34;18.00;;;4.00;;
59127;SDS011;44912;52.754;5.994;2023-03-14T00:41:11;20.50;;;4.05;;
59127;SDS011;44912;52.754;5.994;2023-03-14T00:43:41;18.92;;;3.63;;
59127;SDS011;44912;52.754;5.994;2023-03-14T00:46:07;18.25;;;3.50;;
59127;SDS011;44912;52.754;5.994;2023-03-14T00:48:33;17.92;;;3.70;;
59127;SDS011;44912;52.754;5.994;2023-03-14T00:50:58;18.13;;;3.53;;
59127;SDS011;44912;52.754;5.994;2023-03-14T00:53:24;17.25;;;3.05;;
59127;SDS011;44912;52.754;5.994;2023-03-14T00:55:50;22.27;;;4.10;;
59127;SDS011;44912;52.754;5.994;2023-03-14T00:58:16;17.75;;;3.45;;
59127;SDS011;44912;52.754;5.994;2023-03-14T01:00:43;16.05;;;3.15;;
59127;SDS011;44912;52.754;5.994;2023-03-14T01:03:09;17.25;;;3.60;;
59127;SDS011;44912;52.754;5.994;2023-03-14T01:05:35;18.10;;;3.33;;
59127;SDS011;44912;52.754;5.994;2023-03-14T01:08:02;18.08;;;3.20;;
59127;SDS011;44912;52.754;5.994;2023-03-14T01:10:27;15.95;;;3.30;;
59127;SDS011;44912;52.754;5.994;2023-03-14T01:12:53;15.43;;;3.30;;
59127;SDS011;44912;52.754;5.994;2023-03-14T01:15:19;15.68;;;3.72;;
59127;SDS011;44912;52.754;5.994;2023-03-14T01:17:44;16.88;;;3.10;;
59127;SDS011;44912;52.754;5.994;2023-03-14T01:20:11;13.80;;;2.40;;
59127;SDS011;44912;52.754;5.994;2023-03-14T01:22:39;16.35;;;2.90;;
59127;SDS011;44912;52.754;5.994;2023-03-14T01:25:09;15.15;;;2.88;;
59127;SDS011;44912;52.754;5.994;2023-03-14T01:27:36;19.25;;;2.65;;
59127;SDS011;44912;52.754;5.994;2023-03-14T01:30:02;14.35;;;2.40;;
59127;SDS011;44912;52.754;5.994;2023-03-14T01:32:29;15.52;;;3.35;;
59127;SDS011;44912;52.754;5.994;2023-03-14T01:34:55;15.75;;;2.60;;
59127;SDS011;44912;52.754;5.994;2023-03-14T01:37:21;17.23;;;3.17;;
59127;SDS011;44912;52.754;5.994;2023-03-14T01:39:47;14.43;;;3.03;;
59127;SDS011;44912;52.754;5.994;2023-03-14T01:42:13;15.05;;;2.67;;
59127;SDS011;44912;52.754;5.994;2023-03-14T01:47:51;14.10;;;3.05;;
59127;SDS011;44912;52.754;5.994;2023-03-14T01:50:17;13.90;;;2.88;;
59127;SDS011;44912;52.754;5.994;2023-03-14T01:52:44;14.35;;;2.80;;
59127;SDS011;44912;52.754;5.994;2023-03-14T01:55:13;13.70;;;2.80;;
59127;SDS011;44912;52.754;5.994;2023-03-14T01:57:52;12.00;;;2.38;;
59127;SDS011;44912;52.754;5.994;2023-03-14T02:00:21;9.93;;;3.10;;
59127;SDS011;44912;52.754;5.994;2023-03-14T02:02:49;12.60;;;3.15;;
59127;SDS011;44912;52.754;5.994;2023-03-14T02:05:21;11.40;;;2.05;;
59127;SDS011;44912;52.754;5.994;2023-03-14T02:10:20;14.40;;;2.60;;
59127;SDS011;44912;52.754;5.994;2023-03-14T02:12:48;10.13;;;1.90;;
59127;SDS011;44912;52.754;5.994;2023-03-14T02:15:15;10.77;;;2.00;;
59127;SDS011;44912;52.754;5.994;2023-03-14T02:17:41;11.30;;;1.80;;
59127;SDS011;44912;52.754;5.994;2023-03-14T02:22:49;11.45;;;2.50;;
59127;SDS011;44912;52.754;5.994;2023-03-14T02:25:24;11.80;;;2.40;;
59127;SDS011;44912;52.754;5.994;2023-03-14T02:27:53;10.30;;;2.65;;
59127;SDS011;44912;52.754;5.994;2023-03-14T02:30:27;11.57;;;2.65;;
59127;SDS011;44912;52.754;5.994;2023-03-14T02:32:57;14.95;;;3.05;;
59127;SDS011;44912;52.754;5.994;2023-03-14T02:35:30;14.73;;;3.35;;
59127;SDS011;44912;52.754;5.994;2023-03-14T02:38:08;13.43;;;2.92;;
59127;SDS011;44912;52.754;5.994;2023-03-14T02:40:46;14.15;;;3.40;;
59127;SDS011;44912;52.754;5.994;2023-03-14T02:43:12;15.30;;;3.90;;
59127;SDS011;44912;52.754;5.994;2023-03-14T02:45:39;14.85;;;4.05;;
59127;SDS011;44912;52.754;5.994;2023-03-14T02:48:11;15.02;;;3.67;;
59127;SDS011;44912;52.754;5.994;2023-03-14T02:50:58;10.10;;;3.22;;
59127;SDS011;44912;52.754;5.994;2023-03-14T02:53:26;16.05;;;3.88;;
59127;SDS011;44912;52.754;5.994;2023-03-14T02:55:56;15.00;;;3.60;;
59127;SDS011;44912;52.754;5.994;2023-03-14T02:58:22;14.88;;;4.13;;
59127;SDS011;44912;52.754;5.994;2023-03-14T03:00:48;16.33;;;4.00;;
59127;SDS011;44912;52.754;5.994;2023-03-14T03:03:13;14.57;;;4.22;;
59127;SDS011;44912;52.754;5.994;2023-03-14T03:05:39;15.40;;;3.70;;
59127;SDS011;44912;52.754;5.994;2023-03-14T03:08:05;14.65;;;4.03;;
59127;SDS011;44912;52.754;5.994;2023-03-14T03:10:32;18.15;;;4.57;;
59127;SDS011;44912;52.754;5.994;2023-03-14T03:12:57;17.23;;;4.90;;
59127;SDS011;44912;52.754;5.994;2023-03-14T03:15:23;14.98;;;4.28;;
59127;SDS011;44912;52.754;5.994;2023-03-14T03:17:48;16.73;;;4.45;;
59127;SDS011;44912;52.754;5.994;2023-03-14T03:20:14;16.85;;;4.72;;
59127;SDS011;44912;52.754;5.994;2023-03-14T03:22:40;17.63;;;5.18;;
59127;SDS011;44912;52.754;5.994;2023-03-14T03:25:06;15.40;;;5.63;;
59127;SDS011;44912;52.754;5.994;2023-03-14T03:27:33;18.20;;;5.13;;
59127;SDS011;44912;52.754;5.994;2023-03-14T03:30:00;14.52;;;4.85;;
59127;SDS011;44912;52.754;5.994;2023-03-14T03:32:26;16.48;;;4.97;;
59127;SDS011;44912;52.754;5.994;2023-03-14T03:34:52;15.70;;;5.25;;
59127;SDS011;44912;52.754;5.994;2023-03-14T03:37:18;14.13;;;4.93;;
59127;SDS011;44912;52.754;5.994;2023-03-14T03:39:44;18.75;;;5.10;;
59127;SDS011;44912;52.754;5.994;2023-03-14T03:42:09;18.80;;;5.25;;
59127;SDS011;44912;52.754;5.994;2023-03-14T03:44:35;18.10;;;5.20;;
59127;SDS011;44912;52.754;5.994;2023-03-14T03:47:01;18.77;;;5.25;;
59127;SDS011;44912;52.754;5.994;2023-03-14T03:49:28;17.02;;;5.03;;
59127;SDS011;44912;52.754;5.994;2023-03-14T03:51:55;20.10;;;5.25;;
59127;SDS011;44912;52.754;5.994;2023-03-14T03:54:20;17.77;;;4.85;;
59127;SDS011;44912;52.754;5.994;2023-03-14T03:56:46;15.77;;;4.60;;
59127;SDS011;44912;52.754;5.994;2023-03-14T03:59:11;15.90;;;5.05;;
59127;SDS011;44912;52.754;5.994;2023-03-14T04:01:37;19.52;;;4.45;;
59127;SDS011;44912;52.754;5.994;2023-03-14T04:04:03;14.15;;;4.28;;
59127;SDS011;44912;52.754;5.994;2023-03-14T04:06:28;16.63;;;4.22;;
59127;SDS011;44912;52.754;5.994;2023-03-14T04:08:54;14.30;;;3.90;;
59127;SDS011;44912;52.754;5.994;2023-03-14T04:11:19;11.07;;;3.95;;
59127;SDS011;44912;52.754;5.994;2023-03-14T04:13:45;11.10;;;3.60;;
59127;SDS011;44912;52.754;5.994;2023-03-14T04:16:13;14.18;;;3.92;;
59127;SDS011;44912;52.754;5.994;2023-03-14T04:18:46;15.23;;;4.28;;
59127;SDS011;44912;52.754;5.994;2023-03-14T04:21:12;14.30;;;3.92;;
59127;SDS011;44912;52.754;5.994;2023-03-14T04:23:37;12.70;;;3.45;;
59127;SDS011;44912;52.754;5.994;2023-03-14T04:26:03;15.25;;;3.90;;
59127;SDS011;44912;52.754;5.994;2023-03-14T04:28:29;13.05;;;3.92;;
59127;SDS011;44912;52.754;5.994;2023-03-14T04:30:54;12.68;;;3.72;;
59127;SDS011;44912;52.754;5.994;2023-03-14T04:33:20;11.90;;;3.90;;
59127;SDS011;44912;52.754;5.994;2023-03-14T04:35:45;14.20;;;4.07;;
59127;SDS011;44912;52.754;5.994;2023-03-14T04:38:11;12.57;;;3.78;;
59127;SDS011;44912;52.754;5.994;2023-03-14T04:40:38;11.52;;;3.75;;
59127;SDS011;44912;52.754;5.994;2023-03-14T04:43:05;17.60;;;4.22;;
59127;SDS011;44912;52.754;5.994;2023-03-14T04:45:32;12.07;;;4.00;;
59127;SDS011;44912;52.754;5.994;2023-03-14T04:47:57;14.15;;;3.88;;
59127;SDS011;44912;52.754;5.994;2023-03-14T04:50:23;14.45;;;3.83;;
59127;SDS011;44912;52.754;5.994;2023-03-14T04:52:48;11.65;;;3.65;;
59127;SDS011;44912;52.754;5.994;2023-03-14T04:55:14;12.70;;;3.90;;
59127;SDS011;44912;52.754;5.994;2023-03-14T04:57:40;16.17;;;4.28;;
59127;SDS011;44912;52.754;5.994;2023-03-14T05:00:05;14.05;;;3.50;;
59127;SDS011;44912;52.754;5.994;2023-03-14T05:02:32;15.50;;;3.72;;
59127;SDS011;44912;52.754;5.994;2023-03-14T05:04:58;13.98;;;3.67;;
59127;SDS011;44912;52.754;5.994;2023-03-14T05:07:23;12.95;;;3.85;;
59127;SDS011;44912;52.754;5.994;2023-03-14T05:09:49;20.25;;;5.25;;
59127;SDS011;44912;52.754;5.994;2023-03-14T05:12:15;11.70;;;3.78;;
59127;SDS011;44912;52.754;5.994;2023-03-14T05:14:40;13.50;;;4.18;;
59127;SDS011;44912;52.754;5.994;2023-03-14T05:17:06;14.60;;;4.28;;
59127;SDS011;44912;52.754;5.994;2023-03-14T05:19:31;12.77;;;4.55;;
59127;SDS011;44912;52.754;5.994;2023-03-14T05:21:57;15.25;;;4.47;;
59127;SDS011;44912;52.754;5.994;2023-03-14T05:24:23;14.88;;;4.25;;
59127;SDS011;44912;52.754;5.994;2023-03-14T05:26:48;16.73;;;4.70;;
59127;SDS011;44912;52.754;5.994;2023-03-14T05:29:14;13.88;;;5.03;;
59127;SDS011;44912;52.754;5.994;2023-03-14T05:31:39;11.43;;;4.78;;
59127;SDS011;44912;52.754;5.994;2023-03-14T05:34:05;15.00;;;5.28;;
59127;SDS011;44912;52.754;5.994;2023-03-14T05:36:30;17.05;;;5.30;;
59127;SDS011;44912;52.754;5.994;2023-03-14T05:38:56;15.60;;;5.10;;
59127;SDS011;44912;52.754;5.994;2023-03-14T05:41:21;16.58;;;5.28;;
59127;SDS011;44912;52.754;5.994;2023-03-14T05:43:47;18.15;;;5.32;;
59127;SDS011;44912;52.754;5.994;2023-03-14T05:46:12;17.17;;;5.65;;
59127;SDS011;44912;52.754;5.994;2023-03-14T05:48:38;16.83;;;5.50;;
59127;SDS011;44912;52.754;5.994;2023-03-14T05:51:04;14.45;;;5.97;;
59127;SDS011;44912;52.754;5.994;2023-03-14T05:53:30;16.85;;;6.07;;
59127;SDS011;44912;52.754;5.994;2023-03-14T05:55:56;16.67;;;5.22;;
59127;SDS011;44912;52.754;5.994;2023-03-14T05:58:22;15.85;;;5.45;;
59127;SDS011;44912;52.754;5.994;2023-03-14T06:00:48;14.52;;;5.05;;
59127;SDS011;44912;52.754;5.994;2023-03-14T06:03:14;17.35;;;5.40;;
59127;SDS011;44912;52.754;5.994;2023-03-14T06:05:39;17.80;;;5.72;;
59127;SDS011;44912;52.754;5.994;2023-03-14T06:08:05;13.65;;;4.78;;
59127;SDS011;44912;52.754;5.994;2023-03-14T06:10:31;17.60;;;5.03;;
59127;SDS011;44912;52.754;5.994;2023-03-14T06:12:56;14.80;;;4.45;;
59127;SDS011;44912;52.754;5.994;2023-03-14T06:15:22;12.80;;;4.30;;
59127;SDS011;44912;52.754;5.994;2023-03-14T06:17:47;12.50;;;4.75;;
59127;SDS011;44912;52.754;5.994;2023-03-14T06:20:13;14.43;;;4.63;;
59127;SDS011;44912;52.754;5.994;2023-03-14T06:22:39;13.77;;;4.65;;
59127;SDS011;44912;52.754;5.994;2023-03-14T06:25:05;14.07;;;4.90;;
59127;SDS011;44912;52.754;5.994;2023-03-14T06:27:32;18.67;;;5.57;;
59127;SDS011;44912;52.754;5.994;2023-03-14T06:29:58;11.23;;;4.82;;
59127;SDS011;44912;52.754;5.994;2023-03-14T06:32:23;13.23;;;3.85;;
59127;SDS011;44912;52.754;5.994;2023-03-14T06:34:49;11.15;;;3.22;;
59127;SDS011;44912;52.754;5.994;2023-03-14T06:37:15;7.38;;;2.13;;
59127;SDS011;44912;52.754;5.994;2023-03-14T06:39:40;10.13;;;2.65;;
59127;SDS011;44912;52.754;5.994;2023-03-14T06:42:06;5.03;;;1.92;;
59127;SDS011;44912;52.754;5.994;2023-03-14T06:44:31;8.18;;;1.55;;
59127;SDS011;44912;52.754;5.994;2023-03-14T06:46:57;8.70;;;1.92;;
59127;SDS011;44912;52.754;5.994;2023-03-14T06:49:23;8.65;;;2.20;;
59127;SDS011;44912;52.754;5.994;2023-03-14T06:51:48;7.50;;;2.47;;
59127;SDS011;44912;52.754;5.994;2023-03-14T06:54:14;10.77;;;2.40;;
59127;SDS011;44912;52.754;5.994;2023-03-14T06:56:39;9.32;;;2.28;;
59127;SDS011;44912;52.754;5.994;2023-03-14T06:59:06;8.50;;;2.08;;
59127;SDS011;44912;52.754;5.994;2023-03-14T07:01:31;6.93;;;2.10;;
59127;SDS011;44912;52.754;5.994;2023-03-14T07:03:57;5.68;;;1.73;;
59127;SDS011;44912;52.754;5.994;2023-03-14T07:06:23;8.98;;;1.73;;
59127;SDS011;44912;52.754;5.994;2023-03-14T07:08:50;8.00;;;1.77;;
59127;SDS011;44912;52.754;5.994;2023-03-14T07:11:16;9.63;;;1.63;;
59127;SDS011;44912;52.754;5.994;2023-03-14T07:13:41;8.50;;;1.88;;
59127;SDS011;44912;52.754;5.994;2023-03-14T07:16:07;7.63;;;1.42;;
59127;SDS011;44912;52.754;5.994;2023-03-14T07:18:33;9.95;;;1.50;;
59127;SDS011;44912;52.754;5.994;2023-03-14T07:20:59;11.50;;;1.90;;
59127;SDS011;44912;52.754;5.994;2023-03-14T07:23:24;10.27;;;1.77;;
59127;SDS011;44912;52.754;5.994;2023-03-14T07:25:50;9.60;;;1.42;;
59127;SDS011;44912;52.754;5.994;2023-03-14T07:28:16;11.45;;;1.58;;
59127;SDS011;44912;52.754;5.994;2023-03-14T07:30:42;5.63;;;1.27;;
59127;SDS011;44912;52.754;5.994;2023-03-14T07:33:07;8.05;;;1.30;;
59127;SDS011;44912;52.754;5.994;2023-03-14T07:35:33;7.93;;;1.23;;
59127;SDS011;44912;52.754;5.994;2023-03-14T07:37:58;8.52;;;1.30;;
59127;SDS011;44912;52.754;5.994;2023-03-14T07:40:24;4.88;;;0.85;;
59127;SDS011;44912;52.754;5.994;2023-03-14T07:42:49;8.27;;;1.00;;
59127;SDS011;44912;52.754;5.994;2023-03-14T07:45:15;10.52;;;1.30;;
59127;SDS011;44912;52.754;5.994;2023-03-14T07:47:41;10.07;;;1.20;;
59127;SDS011;44912;52.754;5.994;2023-03-14T07:50:06;3.45;;;0.60;;
59127;SDS011;44912;52.754;5.994;2023-03-14T07:52:32;6.28;;;0.98;;
59127;SDS011;44912;52.754;5.994;2023-03-14T07:54:58;7.80;;;0.90;;
59127;SDS011;44912;52.754;5.994;2023-03-14T07:57:24;5.90;;;1.00;;
59127;SDS011;44912;52.754;5.994;2023-03-14T07:59:49;7.00;;;1.05;;
59127;SDS011;44912;52.754;5.994;2023-03-14T08:02:15;5.60;;;0.90;;
59127;SDS011;44912;52.754;5.994;2023-03-14T08:04:41;5.65;;;0.80;;
59127;SDS011;44912;52.754;5.994;2023-03-14T08:07:07;6.18;;;0.80;;
59127;SDS011;44912;52.754;5.994;2023-03-14T08:09:33;5.72;;;0.90;;
59127;SDS011;44912;52.754;5.994;2023-03-14T08:11:58;8.32;;;1.08;;
59127;SDS011;44912;52.754;5.994;2023-03-14T08:14:24;5.47;;;0.90;;
59127;SDS011;44912;52.754;5.994;2023-03-14T08:16:50;6.60;;;1.33;;
59127;SDS011;44912;52.754;5.994;2023-03-14T08:19:16;5.20;;;1.33;;
59127;SDS011;44912;52.754;5.994;2023-03-14T08:21:41;5.25;;;0.80;;
59127;SDS011;44912;52.754;5.994;2023-03-14T08:24:07;6.90;;;0.90;;
59127;SDS011;44912;52.754;5.994;2023-03-14T08:26:33;5.03;;;0.90;;
59127;SDS011;44912;52.754;5.994;2023-03-14T08:28:58;6.95;;;0.95;;
59127;SDS011;44912;52.754;5.994;2023-03-14T08:31:24;4.22;;;0.98;;
59127;SDS011;44912;52.754;5.994;2023-03-14T08:33:50;5.68;;;1.02;;
59127;SDS011;44912;52.754;5.994;2023-03-14T08:36:17;5.75;;;1.15;;
59127;SDS011;44912;52.754;5.994;2023-03-14T08:38:43;7.15;;;1.13;;
59127;SDS011;44912;52.754;5.994;2023-03-14T08:41:08;6.55;;;1.23;;
59127;SDS011;44912;52.754;5.994;2023-03-14T08:43:35;6.53;;;1.13;;
59127;SDS011;44912;52.754;5.994;2023-03-14T08:46:00;7.10;;;1.10;;
59127;SDS011;44912;52.754;5.994;2023-03-14T08:48:26;6.85;;;1.15;;
59127;SDS011;44912;52.754;5.994;2023-03-14T08:50:54;9.68;;;1.20;;
59127;SDS011;44912;52.754;5.994;2023-03-14T08:53:20;10.68;;;1.23;;
59127;SDS011;44912;52.754;5.994;2023-03-14T08:55:47;11.23;;;1.58;;
59127;SDS011;44912;52.754;5.994;2023-03-14T08:58:17;9.55;;;1.23;;
59127;SDS011;44912;52.754;5.994;2023-03-14T09:00:42;11.20;;;1.58;;
59127;SDS011;44912;52.754;5.994;2023-03-14T09:03:08;10.38;;;2.03;;
59127;SDS011;44912;52.754;5.994;2023-03-14T09:05:33;11.32;;;1.42;;
59127;SDS011;44912;52.754;5.994;2023-03-14T09:07:59;11.00;;;1.67;;
59127;SDS011;44912;52.754;5.994;2023-03-14T09:10:25;9.07;;;1.52;;
59127;SDS011;44912;52.754;5.994;2023-03-14T09:12:50;12.35;;;1.98;;
59127;SDS011;44912;52.754;5.994;2023-03-14T09:15:16;12.98;;;1.88;;
59127;SDS011;44912;52.754;5.994;2023-03-14T09:17:42;10.15;;;1.52;;
59127;SDS011;44912;52.754;5.994;2023-03-14T09:20:09;11.13;;;1.67;;
59127;SDS011;44912;52.754;5.994;2023-03-14T09:22:35;12.25;;;1.80;;
59127;SDS011;44912;52.754;5.994;2023-03-14T09:25:01;11.60;;;1.77;;
59127;SDS011;44912;52.754;5.994;2023-03-14T09:27:28;15.77;;;2.50;;
59127;SDS011;44912;52.754;5.994;2023-03-14T09:29:53;12.15;;;1.90;;
59127;SDS011;44912;52.754;5.994;2023-03-14T09:32:19;17.95;;;2.67;;
59127;SDS011;44912;52.754;5.994;2023-03-14T09:34:44;15.40;;;2.60;;
59127;SDS011;44912;52.754;5.994;2023-03-14T09:37:10;13.25;;;2.40;;
59127;SDS011;44912;52.754;5.994;2023-03-14T09:39:35;17.35;;;2.60;;
59127;SDS011;44912;52.754;5.994;2023-03-14T09:42:02;16.60;;;2.50;;
59127;SDS011;44912;52.754;5.994;2023-03-14T09:44:32;19.77;;;2.67;;
59127;SDS011;44912;52.754;5.994;2023-03-14T09:47:00;16.55;;;2.40;;
59127;SDS011;44912;52.754;5.994;2023-03-14T09:49:32;15.85;;;2.80;;
59127;SDS011;44912;52.754;5.994;2023-03-14T09:52:04;14.00;;;2.90;;
59127;SDS011;44912;52.754;5.994;2023-03-14T09:54:44;18.73;;;2.72;;
59127;SDS011;44912;52.754;5.994;2023-03-14T09:57:26;16.20;;;2.40;;
59127;SDS011;44912;52.754;5.994;2023-03-14T09:59:53;17.52;;;2.70;;
59127;SDS011;44912;52.754;5.994;2023-03-14T10:02:23;18.55;;;2.92;;
59127;SDS011;44912;52.754;5.994;2023-03-14T10:04:53;21.25;;;3.22;;
59127;SDS011;44912;52.754;5.994;2023-03-14T10:07:29;15.20;;;3.00;;
59127;SDS011;44912;52.754;5.994;2023-03-14T10:09:56;17.92;;;2.58;;
59127;SDS011;44912;52.754;5.994;2023-03-14T10:12:33;18.83;;;3.53;;
59127;SDS011;44912;52.754;5.994;2023-03-14T10:15:10;19.98;;;3.42;;
59127;SDS011;44912;52.754;5.994;2023-03-14T10:17:43;19.27;;;3.38;;
59127;SDS011;44912;52.754;5.994;2023-03-14T10:22:57;16.63;;;3.00;;
59127;SDS011;44912;52.754;5.994;2023-03-14T10:25:28;19.30;;;3.20;;
59127;SDS011;44912;52.754;5.994;2023-03-14T10:27:56;19.30;;;3.10;;
59127;SDS011;44912;52.754;5.994;2023-03-14T10:35:51;19.45;;;2.88;;
59127;SDS011;44912;52.754;5.994;2023-03-14T10:38:23;17.05;;;2.78;;
59127;SDS011;44912;52.754;5.994;2023-03-14T10:40:54;17.58;;;2.78;;
59127;SDS011;44912;52.754;5.994;2023-03-14T10:43:23;17.92;;;2.75;;
59127;SDS011;44912;52.754;5.994;2023-03-14T10:46:25;21.58;;;3.08;;
59127;SDS011;44912;52.754;5.994;2023-03-14T10:48:44;20.25;;;3.25;;
59127;SDS011;44912;52.754;5.994;2023-03-14T10:53:44;17.67;;;2.67;;
59127;SDS011;44912;52.754;5.994;2023-03-14T10:56:13;15.32;;;2.55;;
59127;SDS011;44912;52.754;5.994;2023-03-14T10:58:41;11.93;;;1.95;;
59127;SDS011;44912;52.754;5.994;2023-03-14T11:01:14;14.10;;;2.22;;
59127;SDS011;44912;52.754;5.994;2023-03-14T11:03:53;13.88;;;2.35;;
59127;SDS011;44912;52.754;5.994;2023-03-14T11:06:42;15.32;;;2.60;;
59127;SDS011;44912;52.754;5.994;2023-03-14T11:09:18;17.27;;;2.72;;
59127;SDS011;44912;52.754;5.994;2023-03-14T11:12:15;13.38;;;2.63;;
59127;SDS011;44912;52.754;5.994;2023-03-14T11:14:46;20.38;;;3.58;;
59127;SDS011;44912;52.754;5.994;2023-03-14T11:17:21;15.73;;;3.47;;
59127;SDS011;44912;52.754;5.994;2023-03-14T11:20:17;10.18;;;1.90;;
59127;SDS011;44912;52.754;5.994;2023-03-14T11:23:09;17.10;;;3.17;;
59127;SDS011;44912;52.754;5.994;2023-03-14T11:31:37;14.02;;;2.85;;
59127;SDS011;44912;52.754;5.994;2023-03-14T11:36:50;13.48;;;2.42;;
59127;SDS011;44912;52.754;5.994;2023-03-14T11:39:18;14.82;;;2.10;;
59127;SDS011;44912;52.754;5.994;2023-03-14T11:41:46;11.88;;;2.25;;
59127;SDS011;44912;52.754;5.994;2023-03-14T11:44:16;12.95;;;2.20;;
59127;SDS011;44912;52.754;5.994;2023-03-14T11:46:46;12.40;;;2.20;;
59127;SDS011;44912;52.754;5.994;2023-03-14T11:51:58;9.13;;;1.67;;
59127;SDS011;44912;52.754;5.994;2023-03-14T11:54:33;7.03;;;1.45;;
59127;SDS011;44912;52.754;5.994;2023-03-14T12:02:20;8.75;;;1.90;;
59127;SDS011;44912;52.754;5.994;2023-03-14T12:07:44;8.88;;;1.63;;
59127;SDS011;44912;52.754;5.994;2023-03-14T12:10:22;10.70;;;1.60;;
59127;SDS011;44912;52.754;5.994;2023-03-14T12:12:47;7.60;;;1.60;;
59127;SDS011;44912;52.754;5.994;2023-03-14T12:15:21;9.73;;;2.15;;
59127;SDS011;44912;52.754;5.994;2023-03-14T12:17:52;10.45;;;1.92;;
59127;SDS011;44912;52.754;5.994;2023-03-14T12:20:20;12.52;;;3.20;;
59127;SDS011;44912;52.754;5.994;2023-03-14T12:22:48;13.88;;;3.50;;
59127;SDS011;44912;52.754;5.994;2023-03-14T12:25:23;9.27;;;2.10;;
59127;SDS011;44912;52.754;5.994;2023-03-14T12:35:43;11.25;;;2.72;;
59127;SDS011;44912;52.754;5.994;2023-03-14T12:38:38;14.00;;;2.58;;
59127;SDS011;44912;52.754;5.994;2023-03-14T12:41:14;9.88;;;2.30;;
59127;SDS011;44912;52.754;5.994;2023-03-14T12:43:48;9.25;;;1.73;;
59127;SDS011;44912;52.754;5.994;2023-03-14T12:49:15;11.85;;;2.00;;
59127;SDS011;44912;52.754;5.994;2023-03-14T12:51:42;13.23;;;2.80;;
59127;SDS011;44912;52.754;5.994;2023-03-14T12:59:38;11.05;;;2.22;;
59127;SDS011;44912;52.754;5.994;2023-03-14T13:02:20;10.90;;;2.00;;
59127;SDS011;44912;52.754;5.994;2023-03-14T13:08:01;9.20;;;2.13;;
59127;SDS011;44912;52.754;5.994;2023-03-14T13:10:38;6.53;;;1.40;;
59127;SDS011;44912;52.754;5.994;2023-03-14T13:13:20;9.25;;;1.48;;
59127;SDS011;44912;52.754;5.994;2023-03-14T13:15:48;9.05;;;1.50;;
59127;SDS011;44912;52.754;5.994;2023-03-14T13:18:23;9.07;;;1.80;;
59127;SDS011;44912;52.754;5.994;2023-03-14T13:20:55;8.68;;;1.63;;
59127;SDS011;44912;52.754;5.994;2023-03-14T13:23:26;9.75;;;2.05;;
59127;SDS011;44912;52.754;5.994;2023-03-14T13:25:56;8.60;;;1.80;;
59127;SDS011;44912;52.754;5.994;2023-03-14T13:28:24;5.72;;;1.27;;
59127;SDS011;44912;52.754;5.994;2023-03-14T13:30:54;8.60;;;1.95;;
59127;SDS011;44912;52.754;5.994;2023-03-14T13:33:22;8.93;;;1.75;;
59127;SDS011;44912;52.754;5.994;2023-03-14T13:38:23;12.30;;;2.22;;
59127;SDS011;44912;52.754;5.994;2023-03-14T13:40:51;12.75;;;2.50;;
59127;SDS011;44912;52.754;5.994;2023-03-14T13:43:25;8.27;;;1.80;;
59127;SDS011;44912;52.754;5.994;2023-03-14T13:45:56;8.20;;;1.85;;
59127;SDS011;44912;52.754;5.994;2023-03-14T13:48:42;9.55;;;1.85;;
59127;SDS011;44912;52.754;5.994;2023-03-14T13:51:11;9.30;;;1.67;;
59127;SDS011;44912;52.754;5.994;2023-03-14T13:53:45;7.85;;;1.73;;
59127;SDS011;44912;52.754;5.994;2023-03-14T13:56:12;9.52;;;1.70;;
59127;SDS011;44912;52.754;5.994;2023-03-14T13:58:38;10.32;;;2.17;;
59127;SDS011;44912;52.754;5.994;2023-03-14T14:01:51;9.98;;;1.73;;
59127;SDS011;44912;52.754;5.994;2023-03-14T14:04:02;18.55;;;3.63;;
59127;SDS011;44912;52.754;5.994;2023-03-14T14:06:39;15.63;;;3.28;;
59127;SDS011;44912;52.754;5.994;2023-03-14T14:09:12;8.05;;;1.75;;
59127;SDS011;44912;52.754;5.994;2023-03-14T14:12:27;9.05;;;1.83;;
59127;SDS011;44912;52.754;5.994;2023-03-14T14:17:20;7.35;;;1.95;;
59127;SDS011;44912;52.754;5.994;2023-03-14T14:19:49;8.70;;;1.63;;
59127;SDS011;44912;52.754;5.994;2023-03-14T14:22:16;7.82;;;1.40;;
59127;SDS011;44912;52.754;5.994;2023-03-14T14:24:42;8.50;;;2.30;;
59127;SDS011;44912;52.754;5.994;2023-03-14T14:27:18;7.85;;;1.58;;
59127;SDS011;44912;52.754;5.994;2023-03-14T14:30:01;11.95;;;2.08;;
59127;SDS011;44912;52.754;5.994;2023-03-14T14:32:36;10.48;;;2.05;;
59127;SDS011;44912;52.754;5.994;2023-03-14T14:35:02;15.27;;;2.15;;
59127;SDS011;44912;52.754;5.994;2023-03-14T14:37:33;12.77;;;3.60;;
59127;SDS011;44912;52.754;5.994;2023-03-14T14:40:28;11.10;;;2.92;;
59127;SDS011;44912;52.754;5.994;2023-03-14T14:42:53;11.98;;;3.45;;
59127;SDS011;44912;52.754;5.994;2023-03-14T14:45:26;12.93;;;2.92;;
59127;SDS011;44912;52.754;5.994;2023-03-14T14:50:31;12.02;;;2.30;;
59127;SDS011;44912;52.754;5.994;2023-03-14T14:52:59;12.60;;;2.70;;
59127;SDS011;44912;52.754;5.994;2023-03-14T14:55:33;14.02;;;3.05;;
59127;SDS011;44912;52.754;5.994;2023-03-14T15:01:14;14.15;;;2.85;;
59127;SDS011;44912;52.754;5.994;2023-03-14T15:03:44;13.73;;;2.72;;
59127;SDS011;44912;52.754;5.994;2023-03-14T15:06:12;15.75;;;3.05;;
59127;SDS011;44912;52.754;5.994;2023-03-14T15:08:39;11.18;;;1.60;;
59127;SDS011;44912;52.754;5.994;2023-03-14T15:11:05;13.93;;;3.38;;
59127;SDS011;44912;52.754;5.994;2023-03-14T15:13:30;23.30;;;5.93;;
59127;SDS011;44912;52.754;5.994;2023-03-14T15:15:56;8.45;;;2.00;;
59127;SDS011;44912;52.754;5.994;2023-03-14T15:18:23;10.60;;;1.98;;
59127;SDS011;44912;52.754;5.994;2023-03-14T15:20:50;8.52;;;2.10;;
59127;SDS011;44912;52.754;5.994;2023-03-14T15:23:17;5.22;;;1.45;;
59127;SDS011;44912;52.754;5.994;2023-03-14T15:25:43;8.50;;;1.98;;
59127;SDS011;44912;52.754;5.994;2023-03-14T15:28:17;10.82;;;1.73;;
59127;SDS011;44912;52.754;5.994;2023-03-14T15:30:55;6.05;;;1.60;;
59127;SDS011;44912;52.754;5.994;2023-03-14T15:33:23;9.65;;;1.80;;
59127;SDS011;44912;52.754;5.994;2023-03-14T15:35:49;11.23;;;1.60;;
59127;SDS011;44912;52.754;5.994;2023-03-14T15:38:16;6.97;;;1.38;;
59127;SDS011;44912;52.754;5.994;2023-03-14T15:40:48;7.10;;;1.42;;
59127;SDS011;44912;52.754;5.994;2023-03-14T15:43:15;8.00;;;1.50;;
59127;SDS011;44912;52.754;5.994;2023-03-14T15:45:41;11.43;;;2.08;;
59127;SDS011;44912;52.754;5.994;2023-03-14T15:48:08;6.95;;;1.65;;
59127;SDS011;44912;52.754;5.994;2023-03-14T15:50:40;7.40;;;2.13;;
59127;SDS011;44912;52.754;5.994;2023-03-14T15:53:05;8.15;;;2.03;;
59127;SDS011;44912;52.754;5.994;2023-03-14T15:55:31;12.77;;;2.22;;